sensor_id;sensor_type;location;lat;lon;timestamp;pressure;altitude;pressure_sealevel;temperature;humidity
30636;BME280;17400;52.392;9.750;2023-03-17T00:01:17;100543.59;;;7.22;59.58
30636;BME280;17400;52.392;9.750;2023-03-17T00:03:46;100547.13;;;7.22;59.74
30636;BME280;17400;52.392;9.750;2023-03-17T00:06:18;100540.22;;;7.20;59.81
30636;BME280;17400;52.392;9.750;2023-03-17T00:08:50;100550.28;;;7.26;59.77
30636;BME280;17400;52.392;9.750;2023-03-17T00:11:19;100547.84;;;7.16;60.40
30636;BME280;17400;52.392;9.750;2023-03-17T00:13:47;100551.25;;;7.10;60.64
30636;BME280;17400;52.392;9.750;2023-03-17T00:16:16;100538.91;;;7.15;60.85
30636;BME280;17400;52.392;9.750;2023-03-17T00:18:45;100543.09;;;7.18;60.40
30636;BME280;17400;52.392;9.750;2023-03-17T00:21:15;100538.75;;;7.17;60.63
30636;BME280;17400;52.392;9.750;2023-03-17T00:23:48;100543.47;;;7.15;60.71
30636;BME280;17400;52.392;9.750;2023-03-17T00:26:18;100541.47;;;7.17;60.53
30636;BME280;17400;52.392;9.750;2023-03-17T00:28:46;100555.44;;;7.12;60.10
30636;BME280;17400;52.392;9.750;2023-03-17T00:31:15;100551.25;;;7.10;60.88
30636;BME280;17400;52.392;9.750;2023-03-17T00:33:44;100544.38;;;7.07;60.86
30636;BME280;17400;52.392;9.750;2023-03-17T00:36:14;100545.88;;;7.10;61.07
30636;BME280;17400;52.392;9.750;2023-03-17T00:38:43;100546.03;;;7.08;60.74
30636;BME280;17400;52.392;9.750;2023-03-17T00:41:11;100547.06;;;7.07;61.09
30636;BME280;17400;52.392;9.750;2023-03-17T00:43:41;100549.09;;;7.05;61.65
30636;BME280;17400;52.392;9.750;2023-03-17T00:46:11;100547.06;;;7.07;61.56
30636;BME280;17400;52.392;9.750;2023-03-17T00:48:40;100543.03;;;7.03;61.63
30636;BME280;17400;52.392;9.750;2023-03-17T00:51:09;100546.75;;;7.02;61.62
30636;BME280;17400;52.392;9.750;2023-03-17T00:53:37;100536.66;;;7.04;61.35
30636;BME280;17400;52.392;9.750;2023-03-17T00:56:10;100527.28;;;7.00;61.47
30636;BME280;17400;52.392;9.750;2023-03-17T00:58:41;100531.78;;;6.99;62.31
30636;BME280;17400;52.392;9.750;2023-03-17T01:01:09;100537.22;;;6.91;62.43
30636;BME280;17400;52.392;9.750;2023-03-17T01:03:38;100530.66;;;6.94;62.60
30636;BME280;17400;52.392;9.750;2023-03-17T01:06:08;100519.09;;;6.85;62.02
30636;BME280;17400;52.392;9.750;2023-03-17T01:08:37;100527.03;;;6.87;62.62
30636;BME280;17400;52.392;9.750;2023-03-17T01:11:06;100521.63;;;6.87;62.57
30636;BME280;17400;52.392;9.750;2023-03-17T01:13:41;100526.84;;;6.88;62.95
30636;BME280;17400;52.392;9.750;2023-03-17T01:16:09;100519.41;;;6.90;62.79
30636;BME280;17400;52.392;9.750;2023-03-17T01:18:37;100504.13;;;6.91;62.52
30636;BME280;17400;52.392;9.750;2023-03-17T01:21:07;100516.53;;;6.92;62.69
30636;BME280;17400;52.392;9.750;2023-03-17T01:23:35;100527.97;;;6.94;62.47
30636;BME280;17400;52.392;9.750;2023-03-17T01:26:03;100513.13;;;6.98;62.70
30636;BME280;17400;52.392;9.750;2023-03-17T01:28:32;100522.91;;;6.99;62.90
30636;BME280;17400;52.392;9.750;2023-03-17T01:31:01;100534.47;;;6.99;62.58
30636;BME280;17400;52.392;9.750;2023-03-17T01:33:28;100531.09;;;7.06;62.34
30636;BME280;17400;52.392;9.750;2023-03-17T01:35:56;100544.06;;;7.02;62.90
30636;BME280;17400;52.392;9.750;2023-03-17T01:38:24;100538.84;;;7.00;62.63
30636;BME280;17400;52.392;9.750;2023-03-17T01:40:54;100521.34;;;7.05;62.87
30636;BME280;17400;52.392;9.750;2023-03-17T01:43:24;100520.81;;;7.09;62.57
30636;BME280;17400;52.392;9.750;2023-03-17T01:46:25;100517.63;;;7.06;62.44
30636;BME280;17400;52.392;9.750;2023-03-17T01:49:06;100502.38;;;6.98;63.16
30636;BME280;17400;52.392;9.750;2023-03-17T01:51:39;100500.22;;;6.93;63.78
30636;BME280;17400;52.392;9.750;2023-03-17T01:54:12;100489.41;;;7.02;63.65
30636;BME280;17400;52.392;9.750;2023-03-17T01:56:43;100484.84;;;7.02;63.62
30636;BME280;17400;52.392;9.750;2023-03-17T01:59:16;100483.03;;;6.94;63.75
30636;BME280;17400;52.392;9.750;2023-03-17T02:01:48;100480.53;;;6.93;64.35
30636;BME280;17400;52.392;9.750;2023-03-17T02:04:18;100474.66;;;6.89;63.94
30636;BME280;17400;52.392;9.750;2023-03-17T02:06:48;100475.16;;;6.93;64.49
30636;BME280;17400;52.392;9.750;2023-03-17T02:09:24;100478.53;;;6.95;64.00
30636;BME280;17400;52.392;9.750;2023-03-17T02:11:54;100480.72;;;6.91;64.52
30636;BME280;17400;52.392;9.750;2023-03-17T02:14:22;100488.78;;;6.91;65.10
30636;BME280;17400;52.392;9.750;2023-03-17T02:16:52;100483.91;;;6.95;64.40
30636;BME280;17400;52.392;9.750;2023-03-17T02:19:20;100485.59;;;6.96;64.08
30636;BME280;17400;52.392;9.750;2023-03-17T02:21:50;100489.75;;;6.98;64.41
30636;BME280;17400;52.392;9.750;2023-03-17T02:24:23;100492.59;;;7.05;63.75
30636;BME280;17400;52.392;9.750;2023-03-17T02:26:54;100497.41;;;7.10;64.19
30636;BME280;17400;52.392;9.750;2023-03-17T02:29:23;100500.41;;;7.15;63.39
30636;BME280;17400;52.392;9.750;2023-03-17T02:31:51;100493.81;;;7.17;63.93
30636;BME280;17400;52.392;9.750;2023-03-17T02:34:19;100504.59;;;7.17;63.82
30636;BME280;17400;52.392;9.750;2023-03-17T02:36:47;100498.50;;;7.24;63.36
30636;BME280;17400;52.392;9.750;2023-03-17T02:39:16;100511.22;;;7.30;62.78
30636;BME280;17400;52.392;9.750;2023-03-17T02:41:44;100504.22;;;7.21;63.44
30636;BME280;17400;52.392;9.750;2023-03-17T02:44:11;100504.41;;;7.19;63.45
30636;BME280;17400;52.392;9.750;2023-03-17T02:46:39;100494.84;;;7.16;63.42
30636;BME280;17400;52.392;9.750;2023-03-17T02:49:07;100501.59;;;7.12;63.42
30636;BME280;17400;52.392;9.750;2023-03-17T02:51:35;100493.59;;;7.04;63.84
30636;BME280;17400;52.392;9.750;2023-03-17T02:54:03;100492.41;;;7.07;64.58
30636;BME280;17400;52.392;9.750;2023-03-17T02:56:32;100488.72;;;6.99;64.63
30636;BME280;17400;52.392;9.750;2023-03-17T02:59:00;100484.34;;;6.98;64.44
30636;BME280;17400;52.392;9.750;2023-03-17T03:01:27;100491.25;;;7.01;64.64
30636;BME280;17400;52.392;9.750;2023-03-17T03:03:56;100495.50;;;6.95;64.57
30636;BME280;17400;52.392;9.750;2023-03-17T03:06:24;100482.81;;;7.04;65.11
30636;BME280;17400;52.392;9.750;2023-03-17T03:08:52;100466.19;;;7.00;64.93
30636;BME280;17400;52.392;9.750;2023-03-17T03:11:24;100485.59;;;6.96;65.71
30636;BME280;17400;52.392;9.750;2023-03-17T03:13:54;100485.91;;;6.93;65.23
30636;BME280;17400;52.392;9.750;2023-03-17T03:16:22;100482.72;;;6.97;66.14
30636;BME280;17400;52.392;9.750;2023-03-17T03:18:50;100488.09;;;6.97;66.14
30636;BME280;17400;52.392;9.750;2023-03-17T03:21:18;100493.09;;;7.00;65.13
30636;BME280;17400;52.392;9.750;2023-03-17T03:23:46;100494.22;;;7.06;66.12
30636;BME280;17400;52.392;9.750;2023-03-17T03:26:13;100496.59;;;7.09;65.31
30636;BME280;17400;52.392;9.750;2023-03-17T03:28:41;100498.78;;;7.06;64.60
30636;BME280;17400;52.392;9.750;2023-03-17T03:31:10;100497.28;;;7.03;65.38
30636;BME280;17400;52.392;9.750;2023-03-17T03:33:39;100497.97;;;7.05;65.02
30636;BME280;17400;52.392;9.750;2023-03-17T03:36:07;100483.28;;;7.08;65.30
30636;BME280;17400;52.392;9.750;2023-03-17T03:38:37;100490.22;;;7.02;65.28
30636;BME280;17400;52.392;9.750;2023-03-17T03:41:04;100486.91;;;7.00;65.02
30636;BME280;17400;52.392;9.750;2023-03-17T03:43:32;100479.84;;;6.99;65.66
30636;BME280;17400;52.392;9.750;2023-03-17T03:46:00;100484.91;;;6.94;65.77
30636;BME280;17400;52.392;9.750;2023-03-17T03:48:30;100480.03;;;6.89;66.75
30636;BME280;17400;52.392;9.750;2023-03-17T03:50:58;100473.00;;;6.88;66.55
30636;BME280;17400;52.392;9.750;2023-03-17T03:53:27;100473.84;;;6.89;66.47
30636;BME280;17400;52.392;9.750;2023-03-17T03:55:55;100463.25;;;6.87;66.99
30636;BME280;17400;52.392;9.750;2023-03-17T03:58:23;100461.28;;;6.81;66.93
30636;BME280;17400;52.392;9.750;2023-03-17T04:00:50;100449.19;;;6.77;68.19
30636;BME280;17400;52.392;9.750;2023-03-17T04:03:18;100448.38;;;6.76;68.43
30636;BME280;17400;52.392;9.750;2023-03-17T04:05:47;100431.03;;;6.79;68.47
30636;BME280;17400;52.392;9.750;2023-03-17T04:08:17;100422.41;;;6.83;67.98
30636;BME280;17400;52.392;9.750;2023-03-17T04:10:45;100426.13;;;6.82;68.31
30636;BME280;17400;52.392;9.750;2023-03-17T04:13:13;100428.50;;;6.77;67.83
30636;BME280;17400;52.392;9.750;2023-03-17T04:15:40;100437.63;;;6.76;68.20
30636;BME280;17400;52.392;9.750;2023-03-17T04:18:08;100430.56;;;6.75;68.19
30636;BME280;17400;52.392;9.750;2023-03-17T04:20:37;100426.56;;;6.71;68.38
30636;BME280;17400;52.392;9.750;2023-03-17T04:23:06;100428.69;;;6.76;68.45
30636;BME280;17400;52.392;9.750;2023-03-17T04:25:34;100417.63;;;6.71;67.94
30636;BME280;17400;52.392;9.750;2023-03-17T04:28:02;100421.47;;;6.76;68.79
30636;BME280;17400;52.392;9.750;2023-03-17T04:30:30;100428.03;;;6.74;68.46
30636;BME280;17400;52.392;9.750;2023-03-17T04:32:58;100427.19;;;6.73;68.26
30636;BME280;17400;52.392;9.750;2023-03-17T04:35:26;100414.28;;;6.69;68.36
30636;BME280;17400;52.392;9.750;2023-03-17T04:37:54;100407.41;;;6.66;68.26
30636;BME280;17400;52.392;9.750;2023-03-17T04:40:23;100427.94;;;6.67;68.64
30636;BME280;17400;52.392;9.750;2023-03-17T04:42:51;100416.88;;;6.62;68.71
30636;BME280;17400;52.392;9.750;2023-03-17T04:45:18;100411.78;;;6.67;68.19
30636;BME280;17400;52.392;9.750;2023-03-17T04:47:46;100420.31;;;6.71;67.87
30636;BME280;17400;52.392;9.750;2023-03-17T04:50:14;100430.91;;;6.72;67.38
30636;BME280;17400;52.392;9.750;2023-03-17T04:52:43;100415.78;;;6.71;67.31
30636;BME280;17400;52.392;9.750;2023-03-17T04:55:11;100416.44;;;6.73;67.01
30636;BME280;17400;52.392;9.750;2023-03-17T04:57:39;100417.41;;;6.80;66.50
30636;BME280;17400;52.392;9.750;2023-03-17T05:00:08;100426.13;;;6.82;66.83
30636;BME280;17400;52.392;9.750;2023-03-17T05:02:37;100417.94;;;6.76;65.93
30636;BME280;17400;52.392;9.750;2023-03-17T05:05:05;100409.03;;;6.75;66.04
30636;BME280;17400;52.392;9.750;2023-03-17T05:07:34;100415.59;;;6.73;66.35
30636;BME280;17400;52.392;9.750;2023-03-17T05:10:01;100414.41;;;6.75;65.76
30636;BME280;17400;52.392;9.750;2023-03-17T05:12:29;100401.31;;;6.72;66.69
30636;BME280;17400;52.392;9.750;2023-03-17T05:14:58;100410.94;;;6.66;66.11
30636;BME280;17400;52.392;9.750;2023-03-17T05:17:26;100415.50;;;6.66;66.14
30636;BME280;17400;52.392;9.750;2023-03-17T05:19:54;100414.16;;;6.62;66.25
30636;BME280;17400;52.392;9.750;2023-03-17T05:22:21;100409.44;;;6.64;66.41
30636;BME280;17400;52.392;9.750;2023-03-17T05:24:49;100414.28;;;6.69;66.09
30636;BME280;17400;52.392;9.750;2023-03-17T05:27:17;100414.78;;;6.72;66.43
30636;BME280;17400;52.392;9.750;2023-03-17T05:29:44;100420.56;;;6.84;65.53
30636;BME280;17400;52.392;9.750;2023-03-17T05:32:14;100412.50;;;6.84;65.42
30636;BME280;17400;52.392;9.750;2023-03-17T05:34:43;100403.75;;;6.82;65.41
30636;BME280;17400;52.392;9.750;2023-03-17T05:37:12;100407.59;;;6.88;65.44
30636;BME280;17400;52.392;9.750;2023-03-17T05:39:41;100390.91;;;6.92;64.45
30636;BME280;17400;52.392;9.750;2023-03-17T05:42:09;100392.34;;;6.80;63.91
30636;BME280;17400;52.392;9.750;2023-03-17T05:44:37;100396.22;;;6.77;65.46
30636;BME280;17400;52.392;9.750;2023-03-17T05:47:05;100399.47;;;6.73;65.11
30636;BME280;17400;52.392;9.750;2023-03-17T05:49:35;100395.09;;;6.72;64.77
30636;BME280;17400;52.392;9.750;2023-03-17T05:52:02;100399.47;;;6.73;65.41
30636;BME280;17400;52.392;9.750;2023-03-17T05:54:30;100391.56;;;6.71;65.48
30636;BME280;17400;52.392;9.750;2023-03-17T05:56:58;100378.72;;;6.81;64.88
30636;BME280;17400;52.392;9.750;2023-03-17T05:59:26;100384.63;;;6.77;65.07
30636;BME280;17400;52.392;9.750;2023-03-17T06:01:54;100393.25;;;6.72;65.77
30636;BME280;17400;52.392;9.750;2023-03-17T06:04:22;100377.94;;;6.73;66.42
30636;BME280;17400;52.392;9.750;2023-03-17T06:06:52;100381.13;;;6.76;65.53
30636;BME280;17400;52.392;9.750;2023-03-17T06:09:19;100381.94;;;6.77;65.96
30636;BME280;17400;52.392;9.750;2023-03-17T06:11:47;100383.25;;;6.81;66.21
30636;BME280;17400;52.392;9.750;2023-03-17T06:14:15;100394.56;;;6.76;66.08
30636;BME280;17400;52.392;9.750;2023-03-17T06:16:42;100393.41;;;6.71;66.52
30636;BME280;17400;52.392;9.750;2023-03-17T06:19:10;100398.97;;;6.69;66.91
30636;BME280;17400;52.392;9.750;2023-03-17T06:21:38;100402.34;;;6.71;67.44
30636;BME280;17400;52.392;9.750;2023-03-17T06:24:08;100405.03;;;6.71;67.02
30636;BME280;17400;52.392;9.750;2023-03-17T06:26:36;100410.22;;;6.73;67.64
30636;BME280;17400;52.392;9.750;2023-03-17T06:29:04;100406.03;;;6.70;66.97
30636;BME280;17400;52.392;9.750;2023-03-17T06:31:34;100399.66;;;6.71;66.46
30636;BME280;17400;52.392;9.750;2023-03-17T06:34:03;100395.22;;;6.78;66.06
30636;BME280;17400;52.392;9.750;2023-03-17T06:36:31;100386.50;;;6.76;66.05
30636;BME280;17400;52.392;9.750;2023-03-17T06:38:59;100386.06;;;6.88;66.59
30636;BME280;17400;52.392;9.750;2023-03-17T06:41:29;100390.06;;;6.92;65.51
30636;BME280;17400;52.392;9.750;2023-03-17T06:43:56;100388.03;;;6.94;64.58
30636;BME280;17400;52.392;9.750;2023-03-17T06:46:24;100388.81;;;7.03;64.64
30636;BME280;17400;52.392;9.750;2023-03-17T06:48:52;100404.41;;;7.07;64.52
30636;BME280;17400;52.392;9.750;2023-03-17T06:51:20;100403.38;;;7.08;64.15
30636;BME280;17400;52.392;9.750;2023-03-17T06:53:48;100410.06;;;7.12;63.87
30636;BME280;17400;52.392;9.750;2023-03-17T06:56:16;100416.75;;;7.16;63.14
30636;BME280;17400;52.392;9.750;2023-03-17T06:58:56;100416.38;;;7.20;62.55
30636;BME280;17400;52.392;9.750;2023-03-17T07:01:25;100411.97;;;7.27;61.77
30636;BME280;17400;52.392;9.750;2023-03-17T07:03:53;100404.00;;;7.33;61.72
30636;BME280;17400;52.392;9.750;2023-03-17T07:06:22;100404.38;;;7.45;61.08
30636;BME280;17400;52.392;9.750;2023-03-17T07:08:49;100401.59;;;7.54;60.51
30636;BME280;17400;52.392;9.750;2023-03-17T07:11:18;100405.88;;;7.63;60.67
30636;BME280;17400;52.392;9.750;2023-03-17T07:13:45;100392.69;;;7.68;59.61
30636;BME280;17400;52.392;9.750;2023-03-17T07:16:14;100389.78;;;7.70;59.02
30636;BME280;17400;52.392;9.750;2023-03-17T07:18:45;100398.16;;;7.75;59.28
30636;BME280;17400;52.392;9.750;2023-03-17T07:21:13;100395.19;;;7.84;58.94
30636;BME280;17400;52.392;9.750;2023-03-17T07:23:41;100382.25;;;7.95;58.85
30636;BME280;17400;52.392;9.750;2023-03-17T07:26:08;100387.56;;;8.03;58.05
30636;BME280;17400;52.392;9.750;2023-03-17T07:28:36;100381.38;;;8.09;57.64
30636;BME280;17400;52.392;9.750;2023-03-17T07:31:04;100384.06;;;8.24;57.69
30636;BME280;17400;52.392;9.750;2023-03-17T07:33:35;100379.25;;;8.41;57.39
30636;BME280;17400;52.392;9.750;2023-03-17T07:36:04;100382.91;;;8.48;57.21
30636;BME280;17400;52.392;9.750;2023-03-17T07:38:33;100379.34;;;8.48;56.38
30636;BME280;17400;52.392;9.750;2023-03-17T07:41:01;100381.88;;;8.49;56.15
30636;BME280;17400;52.392;9.750;2023-03-17T07:43:30;100384.00;;;8.54;55.63
30636;BME280;17400;52.392;9.750;2023-03-17T07:45:57;100378.94;;;8.66;55.39
30636;BME280;17400;52.392;9.750;2023-03-17T07:48:25;100380.13;;;8.63;55.42
30636;BME280;17400;52.392;9.750;2023-03-17T07:50:54;100377.75;;;8.75;55.31
30636;BME280;17400;52.392;9.750;2023-03-17T07:53:22;100384.06;;;8.82;54.70
30636;BME280;17400;52.392;9.750;2023-03-17T07:55:50;100379.09;;;8.86;54.38
30636;BME280;17400;52.392;9.750;2023-03-17T07:58:18;100375.84;;;8.91;54.36
30636;BME280;17400;52.392;9.750;2023-03-17T08:00:47;100371.50;;;8.96;54.06
30636;BME280;17400;52.392;9.750;2023-03-17T08:03:15;100364.69;;;9.00;53.46
30636;BME280;17400;52.392;9.750;2023-03-17T08:05:43;100368.09;;;9.09;53.77
30636;BME280;17400;52.392;9.750;2023-03-17T08:08:14;100359.09;;;9.02;53.30
30636;BME280;17400;52.392;9.750;2023-03-17T08:10:44;100357.28;;;9.09;53.43
30636;BME280;17400;52.392;9.750;2023-03-17T08:13:12;100357.78;;;9.20;52.84
30636;BME280;17400;52.392;9.750;2023-03-17T08:15:40;100367.81;;;9.32;52.48
30636;BME280;17400;52.392;9.750;2023-03-17T08:18:09;100366.06;;;9.46;52.46
30636;BME280;17400;52.392;9.750;2023-03-17T08:20:36;100370.06;;;9.57;52.19
30636;BME280;17400;52.392;9.750;2023-03-17T08:23:04;100371.38;;;9.68;51.77
30636;BME280;17400;52.392;9.750;2023-03-17T08:25:34;100378.50;;;9.76;51.55
30636;BME280;17400;52.392;9.750;2023-03-17T08:28:02;100371.00;;;9.71;51.19
30636;BME280;17400;52.392;9.750;2023-03-17T08:30:30;100372.63;;;9.72;51.78
30636;BME280;17400;52.392;9.750;2023-03-17T08:32:59;100386.56;;;9.69;51.49
30636;BME280;17400;52.392;9.750;2023-03-17T08:35:28;100383.44;;;9.72;51.52
30636;BME280;17400;52.392;9.750;2023-03-17T08:37:56;100376.25;;;9.86;51.53
30636;BME280;17400;52.392;9.750;2023-03-17T08:40:24;100370.06;;;9.92;50.78
30636;BME280;17400;52.392;9.750;2023-03-17T08:42:53;100382.34;;;9.95;50.99
30636;BME280;17400;52.392;9.750;2023-03-17T08:45:21;100385.88;;;9.95;50.96
30636;BME280;17400;52.392;9.750;2023-03-17T08:47:49;100378.59;;;10.03;51.11
30636;BME280;17400;52.392;9.750;2023-03-17T08:50:19;100378.03;;;10.14;50.85
30636;BME280;17400;52.392;9.750;2023-03-17T08:52:48;100371.56;;;10.08;51.26
30636;BME280;17400;52.392;9.750;2023-03-17T08:55:17;100366.19;;;10.15;51.05
30636;BME280;17400;52.392;9.750;2023-03-17T08:57:46;100363.03;;;10.11;51.14
30636;BME280;17400;52.392;9.750;2023-03-17T09:00:17;100353.50;;;10.15;51.36
30636;BME280;17400;52.392;9.750;2023-03-17T09:02:46;100337.28;;;10.22;51.00
30636;BME280;17400;52.392;9.750;2023-03-17T09:05:15;100339.22;;;10.35;50.97
30636;BME280;17400;52.392;9.750;2023-03-17T09:07:43;100338.81;;;10.52;50.65
30636;BME280;17400;52.392;9.750;2023-03-17T09:10:12;100336.31;;;10.50;50.38
30636;BME280;17400;52.392;9.750;2023-03-17T09:12:40;100329.66;;;10.53;51.11
30636;BME280;17400;52.392;9.750;2023-03-17T09:15:10;100339.69;;;10.65;50.96
30636;BME280;17400;52.392;9.750;2023-03-17T09:17:39;100338.22;;;10.70;50.32
30636;BME280;17400;52.392;9.750;2023-03-17T09:20:09;100324.25;;;10.73;50.46
30636;BME280;17400;52.392;9.750;2023-03-17T09:22:37;100324.06;;;10.88;50.59
30636;BME280;17400;52.392;9.750;2023-03-17T09:25:05;100323.44;;;10.86;49.22
30636;BME280;17400;52.392;9.750;2023-03-17T09:27:33;100326.16;;;10.79;49.16
30636;BME280;17400;52.392;9.750;2023-03-17T09:30:02;100324.25;;;10.86;48.91
30636;BME280;17400;52.392;9.750;2023-03-17T09:32:30;100320.13;;;10.97;48.70
30636;BME280;17400;52.392;9.750;2023-03-17T09:34:59;100320.31;;;11.02;48.38
30636;BME280;17400;52.392;9.750;2023-03-17T09:37:27;100327.78;;;11.13;48.26
30636;BME280;17400;52.392;9.750;2023-03-17T09:39:54;100337.16;;;11.24;48.54
30636;BME280;17400;52.392;9.750;2023-03-17T09:42:40;100332.34;;;11.33;48.15
30636;BME280;17400;52.392;9.750;2023-03-17T09:45:18;100344.66;;;11.36;47.94
30636;BME280;17400;52.392;9.750;2023-03-17T09:47:53;100347.56;;;11.41;47.52
30636;BME280;17400;52.392;9.750;2023-03-17T09:50:36;100344.41;;;11.44;47.17
30636;BME280;17400;52.392;9.750;2023-03-17T09:53:12;100349.59;;;11.52;48.02
30636;BME280;17400;52.392;9.750;2023-03-17T09:55:43;100359.00;;;11.63;47.19
30636;BME280;17400;52.392;9.750;2023-03-17T09:58:15;100353.72;;;11.68;47.09
30636;BME280;17400;52.392;9.750;2023-03-17T10:00:45;100349.97;;;11.69;46.60
30636;BME280;17400;52.392;9.750;2023-03-17T10:03:13;100358.16;;;11.56;46.11
30636;BME280;17400;52.392;9.750;2023-03-17T10:05:42;100356.69;;;11.53;46.36
30636;BME280;17400;52.392;9.750;2023-03-17T10:08:13;100360.03;;;11.62;46.35
30636;BME280;17400;52.392;9.750;2023-03-17T10:11:00;100352.91;;;11.67;46.08
30636;BME280;17400;52.392;9.750;2023-03-17T10:13:41;100342.88;;;11.68;46.54
30636;BME280;17400;52.392;9.750;2023-03-17T10:16:12;100344.16;;;11.72;46.48
30636;BME280;17400;52.392;9.750;2023-03-17T10:18:44;100339.94;;;11.83;46.68
30636;BME280;17400;52.392;9.750;2023-03-17T10:21:17;100332.84;;;11.82;46.11
30636;BME280;17400;52.392;9.750;2023-03-17T10:23:47;100331.38;;;11.79;46.58
30636;BME280;17400;52.392;9.750;2023-03-17T10:26:24;100343.28;;;11.78;46.23
30636;BME280;17400;52.392;9.750;2023-03-17T10:28:54;100340.75;;;11.83;46.77
30636;BME280;17400;52.392;9.750;2023-03-17T10:31:27;100332.59;;;11.97;46.72
30636;BME280;17400;52.392;9.750;2023-03-17T10:33:57;100339.44;;;12.06;46.23
30636;BME280;17400;52.392;9.750;2023-03-17T10:36:35;100344.88;;;12.06;46.05
30636;BME280;17400;52.392;9.750;2023-03-17T10:39:05;100341.47;;;12.18;46.26
30636;BME280;17400;52.392;9.750;2023-03-17T10:41:37;100336.22;;;12.23;45.85
30636;BME280;17400;52.392;9.750;2023-03-17T10:44:08;100342.25;;;12.25;45.82
30636;BME280;17400;52.392;9.750;2023-03-17T10:46:37;100338.06;;;12.29;46.21
30636;BME280;17400;52.392;9.750;2023-03-17T10:49:08;100332.81;;;12.34;45.94
30636;BME280;17400;52.392;9.750;2023-03-17T10:51:37;100343.44;;;12.36;45.89
30636;BME280;17400;52.392;9.750;2023-03-17T10:54:09;100335.97;;;12.31;46.15
30636;BME280;17400;52.392;9.750;2023-03-17T10:56:40;100330.50;;;12.38;45.98
30636;BME280;17400;52.392;9.750;2023-03-17T10:59:16;100324.16;;;12.50;46.31
30636;BME280;17400;52.392;9.750;2023-03-17T11:01:48;100327.06;;;12.56;45.67
30636;BME280;17400;52.392;9.750;2023-03-17T11:04:28;100334.69;;;12.65;45.88
30636;BME280;17400;52.392;9.750;2023-03-17T11:07:05;100332.22;;;12.64;45.37
30636;BME280;17400;52.392;9.750;2023-03-17T11:09:36;100341.97;;;12.72;45.58
30636;BME280;17400;52.392;9.750;2023-03-17T11:12:06;100328.34;;;12.78;45.34
30636;BME280;17400;52.392;9.750;2023-03-17T11:14:34;100331.47;;;12.82;45.41
30636;BME280;17400;52.392;9.750;2023-03-17T11:17:12;100332.28;;;12.82;45.39
30636;BME280;17400;52.392;9.750;2023-03-17T11:19:46;100325.56;;;12.85;45.45
30636;BME280;17400;52.392;9.750;2023-03-17T11:22:26;100320.69;;;12.94;45.91
30636;BME280;17400;52.392;9.750;2023-03-17T11:25:04;100316.25;;;12.99;45.26
30636;BME280;17400;52.392;9.750;2023-03-17T11:27:41;100317.00;;;13.07;45.33
30636;BME280;17400;52.392;9.750;2023-03-17T11:30:15;100320.94;;;13.11;45.40
30636;BME280;17400;52.392;9.750;2023-03-17T11:32:52;100305.66;;;13.16;45.36
30636;BME280;17400;52.392;9.750;2023-03-17T11:35:48;100302.47;;;13.20;45.06
30636;BME280;17400;52.392;9.750;2023-03-17T11:38:25;100301.66;;;13.19;45.61
30636;BME280;17400;52.392;9.750;2023-03-17T11:41:08;100297.03;;;13.20;45.57
30636;BME280;17400;52.392;9.750;2023-03-17T11:43:46;100300.06;;;13.30;45.63
30636;BME280;17400;52.392;9.750;2023-03-17T11:46:23;100289.16;;;13.37;45.44
30636;BME280;17400;52.392;9.750;2023-03-17T11:48:58;100282.59;;;13.44;45.46
30636;BME280;17400;52.392;9.750;2023-03-17T11:51:33;100276.84;;;13.53;45.53
30636;BME280;17400;52.392;9.750;2023-03-17T11:54:09;100281.28;;;13.65;45.86
30636;BME280;17400;52.392;9.750;2023-03-17T11:56:43;100286.66;;;13.72;45.33
30636;BME280;17400;52.392;9.750;2023-03-17T11:59:17;100284.06;;;13.77;45.22
30636;BME280;17400;52.392;9.750;2023-03-17T12:01:53;100276.66;;;13.85;45.17
30636;BME280;17400;52.392;9.750;2023-03-17T12:04:26;100277.44;;;14.04;44.99
30636;BME280;17400;52.392;9.750;2023-03-17T12:07:03;100284.00;;;14.14;44.87
30636;BME280;17400;52.392;9.750;2023-03-17T12:09:40;100280.56;;;14.19;44.89
30636;BME280;17400;52.392;9.750;2023-03-17T12:12:13;100282.47;;;14.19;45.17
30636;BME280;17400;52.392;9.750;2023-03-17T12:14:47;100287.69;;;14.20;44.92
30636;BME280;17400;52.392;9.750;2023-03-17T12:17:20;100286.16;;;14.24;44.66
30636;BME280;17400;52.392;9.750;2023-03-17T12:20:00;100284.38;;;14.30;45.32
30636;BME280;17400;52.392;9.750;2023-03-17T12:22:37;100275.91;;;14.38;44.89
30636;BME280;17400;52.392;9.750;2023-03-17T12:25:13;100264.06;;;14.44;44.87
30636;BME280;17400;52.392;9.750;2023-03-17T12:27:53;100256.97;;;14.55;45.24
30636;BME280;17400;52.392;9.750;2023-03-17T12:30:28;100249.53;;;14.62;45.25
30636;BME280;17400;52.392;9.750;2023-03-17T12:33:05;100251.81;;;14.65;44.72
30636;BME280;17400;52.392;9.750;2023-03-17T12:35:37;100252.66;;;14.66;44.71
30636;BME280;17400;52.392;9.750;2023-03-17T12:38:09;100249.19;;;14.71;44.87
30636;BME280;17400;52.392;9.750;2023-03-17T12:41:03;100249.44;;;14.69;44.73
30636;BME280;17400;52.392;9.750;2023-03-17T12:43:39;100248.97;;;14.72;44.96
30636;BME280;17400;52.392;9.750;2023-03-17T12:46:40;100240.78;;;14.72;45.15
30636;BME280;17400;52.392;9.750;2023-03-17T12:49:26;100247.09;;;14.73;45.01
30636;BME280;17400;52.392;9.750;2023-03-17T12:52:04;100241.50;;;14.79;44.74
30636;BME280;17400;52.392;9.750;2023-03-17T12:54:43;100245.53;;;14.89;45.30
30636;BME280;17400;52.392;9.750;2023-03-17T12:57:17;100243.50;;;14.96;45.36
30636;BME280;17400;52.392;9.750;2023-03-17T12:59:47;100240.91;;;15.01;45.00
30636;BME280;17400;52.392;9.750;2023-03-17T13:02:22;100248.16;;;15.07;45.23
30636;BME280;17400;52.392;9.750;2023-03-17T13:04:59;100256.44;;;15.12;44.79
30636;BME280;17400;52.392;9.750;2023-03-17T13:07:31;100237.94;;;15.14;45.04
30636;BME280;17400;52.392;9.750;2023-03-17T13:10:36;100237.47;;;15.18;45.51
30636;BME280;17400;52.392;9.750;2023-03-17T13:13:10;100230.34;;;15.16;45.02
30636;BME280;17400;52.392;9.750;2023-03-17T13:15:55;100223.59;;;15.19;44.53